Time;durP1;ratioP1;P1;durP2;ratioP2;P2;SDS_P1;SDS_P2;PMS_P1;PMS_P2;Temp;Humidity;BMP_temperature;BMP_pressure;BME280_temperature;BME280_humidity;BME280_pressure;Samples;Min_cycle;Max_cycle;Signal;HPM_P1;HPM_P2
2022/02/03 00:01:25;;;;;;;20.38;12.15;;;-3.90;95.20;;;;;;4995802;28;20418;-82
2022/02/03 00:03:57;;;;;;;25.08;11.80;;;-4.00;95.20;;;;;;5016132;28;20013;-81
2022/02/03 00:06:45;;;;;;;15.85;9.57;;;-4.00;95.30;;;;;;5015534;28;20494;-79
2022/02/03 00:25:22;;;;;;;23.77;12.85;;;-4.20;95.60;;;;;;5020670;28;19913;-81
2022/02/03 00:28:08;;;;;;;27.77;15.18;;;-4.20;95.60;;;;;;5020287;28;20022;-81
2022/02/03 00:36:09;;;;;;;27.27;14.50;;;-4.30;95.80;;;;;;5022677;28;20049;-80
2022/02/03 00:49:27;;;;;;;26.38;14.60;;;-4.30;96.00;;;;;;5012517;28;20454;-82
2022/02/03 00:51:59;;;;;;;24.00;16.27;;;-4.30;96.00;;;;;;5012743;28;20080;-81
2022/02/03 00:54:25;;;;;;;24.35;13.98;;;-4.40;96.10;;;;;;4995341;28;20530;-82
2022/02/03 00:57:04;;;;;;;24.93;13.77;;;-4.40;96.10;;;;;;5014419;28;20026;-81
2022/02/03 00:59:40;;;;;;;25.33;14.40;;;-4.40;96.20;;;;;;5013664;28;20255;-81
2022/02/03 01:02:14;;;;;;;26.92;13.75;;;-4.40;96.20;;;;;;5014081;28;20018;-81
2022/02/03 01:04:42;;;;;;;21.38;13.20;;;-4.40;96.30;;;;;;5004641;28;20111;-81
2022/02/03 01:07:15;;;;;;;26.58;14.98;;;-4.40;96.30;;;;;;5032163;28;20014;-81
2022/02/03 01:10:00;;;;;;;23.80;14.18;;;-4.40;96.30;;;;;;5032234;28;20029;-81
2022/02/03 01:12:40;;;;;;;26.02;15.05;;;-4.40;96.30;;;;;;5010944;28;20398;-84
2022/02/03 01:15:19;;;;;;;24.98;14.55;;;-4.40;96.30;;;;;;5012372;28;20029;-82
2022/02/03 01:17:57;;;;;;;31.00;15.90;;;-4.40;96.40;;;;;;5012311;28;20022;-83
2022/02/03 01:21:07;;;;;;;25.10;16.50;;;-4.30;96.30;;;;;;5012065;28;20029;-83
2022/02/03 01:53:42;;;;;;;23.50;13.55;;;-3.80;95.90;;;;;;5039946;28;20039;-83
2022/02/03 01:56:14;;;;;;;23.10;15.60;;;-3.70;95.90;;;;;;5039385;28;20029;-81
2022/02/03 01:58:45;;;;;;;21.67;14.93;;;-3.60;95.80;;;;;;5035813;28;20014;-81
2022/02/03 02:01:31;;;;;;;24.65;14.63;;;-3.60;95.50;;;;;;5017914;28;20351;-81
2022/02/03 02:04:07;;;;;;;25.52;14.57;;;-3.60;95.30;;;;;;5016293;28;20521;-81
2022/02/03 02:06:57;;;;;;;20.45;12.35;;;-3.60;95.20;;;;;;5021005;28;20042;-78
2022/02/03 02:10:03;;;;;;;25.92;13.32;;;-3.60;95.10;;;;;;5023349;28;20026;-81
2022/02/03 02:13:09;;;;;;;22.30;15.80;;;-3.70;95.00;;;;;;5000431;28;20546;-80
2022/02/03 02:42:10;;;;;;;24.00;14.07;;;-4.10;94.90;;;;;;4979146;28;20041;-81
2022/02/03 02:44:01;;;;;;;28.08;17.33;;;-4.10;94.90;;;;;;5004874;28;20140;-82
2022/02/03 02:46:48;;;;;;;25.13;13.82;;;-4.20;94.90;;;;;;5006273;28;20125;-82
2022/02/03 02:49:20;;;;;;;28.23;17.40;;;-4.10;95.20;;;;;;5022553;28;20052;-80
2022/02/03 02:51:46;;;;;;;23.98;13.88;;;-4.00;95.30;;;;;;5016128;28;20383;-83
2022/02/03 02:54:43;;;;;;;26.30;13.65;;;-3.90;95.30;;;;;;5015555;28;20053;-83
2022/02/03 03:33:46;;;;;;;21.33;13.63;;;-4.20;95.00;;;;;;5014602;28;20040;-86
2022/02/03 03:36:16;;;;;;;19.23;14.60;;;-4.10;95.10;;;;;;5016904;28;20109;-82
2022/02/03 03:38:47;;;;;;;27.83;14.50;;;-4.10;95.10;;;;;;5022139;28;20022;-81
2022/02/03 03:41:21;;;;;;;28.25;16.00;;;-4.10;95.20;;;;;;5014221;28;20414;-85
2022/02/03 03:44:07;;;;;;;25.73;14.02;;;-4.10;95.10;;;;;;5033638;28;20032;-82
2022/02/03 03:46:39;;;;;;;28.08;14.75;;;-4.10;95.10;;;;;;5011101;28;20045;-82
2022/02/03 03:49:33;;;;;;;20.17;13.27;;;-4.10;95.20;;;;;;5012273;28;20034;-83
2022/02/03 03:52:05;;;;;;;25.23;14.23;;;-4.10;95.30;;;;;;5012322;28;20510;-81
2022/02/03 03:57:19;;;;;;;24.75;13.20;;;-4.20;95.40;;;;;;4993146;28;20732;-82
2022/02/03 04:00:21;;;;;;;22.65;14.68;;;-4.20;95.50;;;;;;5001245;28;20046;-84
2022/02/03 04:42:05;;;;;;;24.70;14.70;;;-4.20;95.30;;;;;;5023891;28;20492;-82
2022/02/03 04:45:25;;;;;;;21.13;13.80;;;-4.20;95.30;;;;;;5032912;28;20040;-82
2022/02/03 05:03:01;;;;;;;30.33;17.58;;;-4.20;95.10;;;;;;5039584;28;20112;-82
2022/02/03 05:06:24;;;;;;;29.60;17.08;;;-4.20;95.20;;;;;;5044389;28;20044;-85
2022/02/03 05:08:49;;;;;;;30.98;17.40;;;-4.10;95.20;;;;;;5018359;28;20061;-83
2022/02/03 05:11:50;;;;;;;30.05;15.85;;;-4.10;95.20;;;;;;5020794;28;20395;-82
2022/02/03 05:21:05;;;;;;;31.80;14.95;;;-4.10;95.10;;;;;;4959822;29;20038;-84
2022/02/03 05:26:54;;;;;;;32.05;17.98;;;-4.10;95.20;;;;;;4956741;29;20070;-85
2022/02/03 05:33:20;;;;;;;24.10;15.10;;;-4.10;95.10;;;;;;4938663;29;20092;-84
2022/02/03 05:48:35;;;;;;;29.77;17.70;;;-4.30;95.00;;;;;;4928216;29;20122;-83
2022/02/03 06:04:29;;;;;;;33.17;16.50;;;-4.30;95.00;;;;;;5015120;28;20088;-84
2022/02/03 06:12:41;;;;;;;22.88;15.23;;;-4.20;94.90;;;;;;5016068;28;20033;-84
2022/02/03 06:15:11;;;;;;;;;;;-4.20;94.90;;;;;;5015888;28;20040;-83
2022/02/03 06:23:59;;;;;;;31.40;17.40;;;-4.20;94.80;;;;;;5037609;28;20021;-85
2022/02/03 06:29:15;;;;;;;30.65;18.45;;;-4.20;94.60;;;;;;5018363;28;20065;-84
2022/02/03 06:31:43;;;;;;;30.92;19.00;;;-4.20;94.80;;;;;;5016334;28;20057;-85
2022/02/03 06:34:10;;;;;;;33.75;19.15;;;-4.20;94.80;;;;;;5016332;28;20442;-85
2022/02/03 06:36:37;;;;;;;32.47;18.73;;;-4.20;94.70;;;;;;5015669;28;20364;-87
2022/02/03 06:39:23;;;;;;;35.28;19.65;;;-4.10;94.80;;;;;;5033485;28;20041;-84
2022/02/03 06:41:54;;;;;;;22.52;14.93;;;-4.10;94.80;;;;;;5013243;28;20076;-84
2022/02/03 06:44:26;;;;;;;31.45;18.73;;;-4.00;94.70;;;;;;4997600;28;20040;-84
2022/02/03 06:46:54;;;;;;;32.33;19.20;;;-3.90;94.60;;;;;;5015178;28;20033;-86
2022/02/03 06:50:07;;;;;;;29.10;18.63;;;-3.90;94.50;;;;;;5015219;28;20030;-82
2022/02/03 06:52:15;;;;;;;41.25;22.52;;;-3.90;94.30;;;;;;5008876;28;20117;-82
2022/02/03 06:57:26;;;;;;;33.65;18.33;;;-3.90;94.10;;;;;;5016925;28;20148;-88
2022/02/03 07:00:04;;;;;;;35.50;19.65;;;-3.90;93.90;;;;;;5029004;28;20462;-85
2022/02/03 07:02:35;;;;;;;32.70;17.40;;;-3.90;94.00;;;;;;5031458;28;20018;-82
2022/02/03 07:05:01;;;;;;;29.98;18.80;;;-3.80;93.90;;;;;;5032888;28;20097;-83
2022/02/03 07:07:27;;;;;;;39.97;20.30;;;-3.80;93.70;;;;;;5040457;28;20029;-78
2022/02/03 07:09:53;;;;;;;26.75;18.42;;;-3.80;93.70;;;;;;5036469;28;20041;-83
2022/02/03 07:12:21;;;;;;;41.65;19.67;;;-3.80;93.80;;;;;;5006089;28;20396;-82
2022/02/03 07:14:48;;;;;;;31.00;17.88;;;-3.70;93.70;;;;;;5015390;28;20076;-84
2022/02/03 07:17:14;;;;;;;27.97;18.47;;;-3.70;93.50;;;;;;5015546;28;20018;-81
2022/02/03 07:19:46;;;;;;;31.88;19.50;;;-3.60;93.60;;;;;;5015196;28;20747;-83
2022/02/03 07:22:12;;;;;;;32.60;20.50;;;-3.60;93.50;;;;;;5015550;28;20034;-84
2022/02/03 07:24:38;;;;;;;35.13;19.05;;;-3.50;93.30;;;;;;4997598;28;20125;-84
2022/02/03 07:27:04;;;;;;;41.92;19.67;;;-3.50;93.10;;;;;;5017221;28;20033;-83
2022/02/03 07:29:30;;;;;;;37.65;20.80;;;-3.60;93.10;;;;;;5016463;28;20053;-83
2022/02/03 07:31:55;;;;;;;38.33;20.17;;;-3.50;93.00;;;;;;5013035;28;20045;-84
2022/02/03 07:34:21;;;;;;;36.55;20.08;;;-3.40;93.10;;;;;;4996420;28;20053;-82
2022/02/03 07:36:48;;;;;;;35.28;19.92;;;-3.40;93.00;;;;;;5013066;28;20391;-84
2022/02/03 07:39:14;;;;;;;36.95;18.83;;;-3.30;92.90;;;;;;5014478;28;20033;-84
2022/02/03 07:41:41;;;;;;;35.13;18.38;;;-3.20;92.90;;;;;;5014007;28;20064;-83
2022/02/03 07:44:08;;;;;;;31.67;19.43;;;-3.10;92.70;;;;;;5014365;28;20061;-84
2022/02/03 07:46:35;;;;;;;33.85;19.88;;;-3.20;92.40;;;;;;4996283;28;20517;-83
2022/02/03 07:49:01;;;;;;;35.30;19.23;;;-3.10;92.50;;;;;;5013965;28;20030;-83
2022/02/03 07:51:28;;;;;;;39.55;18.38;;;-3.10;92.60;;;;;;5013972;28;20510;-83
2022/02/03 07:53:54;;;;;;;34.13;19.55;;;-3.00;92.50;;;;;;5014361;28;20434;-85
2022/02/03 07:56:20;;;;;;;42.08;19.05;;;-3.00;92.60;;;;;;5015169;28;20034;-83
2022/02/03 07:58:46;;;;;;;35.75;20.40;;;-2.90;92.60;;;;;;5019667;28;20025;-84
2022/02/03 08:01:11;;;;;;;39.83;22.08;;;-2.70;92.50;;;;;;5018157;28;20087;-83
2022/02/03 08:03:41;;;;;;;39.22;20.45;;;-2.60;92.40;;;;;;5025737;28;20017;-85
2022/02/03 08:06:11;;;;;;;47.70;22.08;;;-2.60;92.20;;;;;;5014140;28;20483;-85
2022/02/03 08:08:42;;;;;;;47.90;21.85;;;-2.50;92.00;;;;;;5000730;28;20030;-85
2022/02/03 08:11:12;;;;;;;46.42;24.70;;;-2.50;91.80;;;;;;5017939;28;20022;-81
2022/02/03 08:13:49;;;;;;;35.60;21.38;;;-2.50;91.60;;;;;;5003551;28;20030;-83
2022/02/03 08:16:22;;;;;;;;;;;-2.40;91.70;;;;;;5015538;28;20022;-83
2022/02/03 08:18:52;;;;;;;36.33;20.73;;;-2.30;91.80;;;;;;4999518;28;19959;-83
2022/02/03 08:21:20;;;;;;;41.33;21.75;;;-2.20;91.50;;;;;;5036389;28;20045;-84
2022/02/03 08:31:27;;;;;;;49.50;23.77;;;-1.80;91.20;;;;;;5032725;28;20133;-83
2022/02/03 08:33:55;;;;;;;43.72;20.70;;;-1.60;91.30;;;;;;5031446;28;20028;-84
2022/02/03 08:36:22;;;;;;;42.95;22.88;;;-1.40;91.20;;;;;;5013380;28;20017;-85
2022/02/03 08:38:56;;;;;;;36.80;21.27;;;-1.10;90.90;;;;;;5013140;28;20022;-84
2022/02/03 08:41:25;;;;;;;42.70;23.63;;;-0.80;90.80;;;;;;5013548;28;20054;-83
2022/02/03 08:43:50;;;;;;;35.05;22.38;;;-0.40;90.40;;;;;;5013338;28;20022;-82
2022/02/03 08:46:16;;;;;;;38.58;23.45;;;-0.30;89.60;;;;;;5015419;28;20553;-84
2022/02/03 08:48:42;;;;;;;42.35;23.83;;;-0.20;88.30;;;;;;5013362;28;20087;-82
2022/02/03 08:51:09;;;;;;;42.65;24.92;;;-0.20;88.10;;;;;;5017163;28;20035;-83
2022/02/03 08:53:44;;;;;;;40.30;25.40;;;-0.30;87.70;;;;;;5033800;28;20477;-83
2022/02/03 09:37:10;;;;;;;41.03;22.25;;;-0.60;85.30;;;;;;5034472;28;20031;-83
2022/02/03 09:58:22;;;;;;;48.72;28.25;;;-1.10;86.20;;;;;;5037710;28;20491;-82
2022/02/03 10:03:49;;;;;;;50.63;27.92;;;-1.00;86.70;;;;;;5036772;28;20018;-85
2022/02/03 10:06:16;;;;;;;45.63;28.65;;;-0.90;86.80;;;;;;5036192;28;20087;-84
2022/02/03 10:08:52;;;;;;;47.22;30.90;;;-0.90;86.70;;;;;;5036022;28;20026;-85
2022/02/03 10:11:26;;;;;;;50.70;31.95;;;-0.80;86.80;;;;;;5035619;28;20057;-82
2022/02/03 10:13:56;;;;;;;47.13;29.40;;;-0.80;86.60;;;;;;5035763;28;20109;-84
2022/02/03 10:16:29;;;;;;;51.47;29.88;;;-0.70;86.70;;;;;;5036045;28;20194;-83
2022/02/03 10:19:13;;;;;;;54.92;31.52;;;-0.60;86.80;;;;;;5035970;28;20057;-84
2022/02/03 10:21:41;;;;;;;50.45;30.77;;;-0.60;86.40;;;;;;5030446;28;20030;-84
2022/02/03 10:24:08;;;;;;;47.92;28.05;;;-0.50;86.60;;;;;;5026615;28;20029;-80
2022/02/03 10:26:37;;;;;;;42.47;26.73;;;-0.40;86.50;;;;;;5023523;28;20423;-84
2022/02/03 10:29:07;;;;;;;59.92;32.75;;;-0.60;85.60;;;;;;5005381;28;20029;-85
2022/02/03 10:31:38;;;;;;;50.75;30.73;;;-0.70;86.40;;;;;;5000166;28;20396;-83
2022/02/03 10:34:09;;;;;;;54.72;30.65;;;-0.70;86.80;;;;;;5016376;28;20022;-83
2022/02/03 10:36:51;;;;;;;48.40;29.55;;;-0.60;86.60;;;;;;5015237;28;20482;-83
2022/02/03 10:55:40;;;;;;;39.88;27.05;;;-0.70;88.00;;;;;;5016080;28;20029;-85
2022/02/03 10:58:26;;;;;;;46.28;26.92;;;-0.90;88.20;;;;;;5016161;28;20025;-85
2022/02/03 11:06:36;;;;;;;51.70;28.13;;;-0.90;89.20;;;;;;5041737;28;20067;-84
2022/02/03 11:11:35;;;;;;;60.58;32.30;;;-0.80;89.70;;;;;;5014941;28;20022;-85
2022/02/03 11:14:03;;;;;;;47.70;28.23;;;-0.60;89.60;;;;;;5015258;28;20037;-85
2022/02/03 11:16:29;;;;;;;;;;;-0.50;89.20;;;;;;5015513;28;20029;-85
2022/02/03 11:19:01;;;;;;;48.15;27.23;;;-0.40;89.10;;;;;;4997439;28;19905;-84
2022/02/03 11:21:28;;;;;;;50.83;27.77;;;-0.40;88.70;;;;;;4998213;28;20129;-85
2022/02/03 11:24:02;;;;;;;45.72;27.85;;;-0.60;88.60;;;;;;5016465;28;20014;-83
2022/02/03 11:46:07;;;;;;;43.67;27.17;;;-0.80;89.30;;;;;;5037080;28;20044;-85
2022/02/03 11:52:21;;;;;;;42.67;25.43;;;-0.90;90.10;;;;;;5028865;28;20021;-86
2022/02/03 12:02:56;;;;;;;49.65;28.63;;;-1.30;90.40;;;;;;4991916;28;20502;-85
2022/02/03 12:24:30;;;;;;;47.58;29.17;;;-1.10;90.20;;;;;;4992477;28;20113;-85
2022/02/03 12:27:18;;;;;;;42.10;25.30;;;-1.10;90.30;;;;;;4992728;28;20030;-83
2022/02/03 12:29:58;;;;;;;50.75;27.17;;;-1.10;90.30;;;;;;4993502;28;20444;-84
2022/02/03 12:43:27;;;;;;;43.95;25.40;;;-1.20;90.20;;;;;;5015531;28;20106;-81
2022/02/03 12:45:53;;;;;;;39.92;23.45;;;-1.20;90.30;;;;;;5021114;28;20034;-82
2022/02/03 12:48:30;;;;;;;39.60;23.10;;;-1.30;90.20;;;;;;5016819;28;20104;-84
2022/02/03 12:50:56;;;;;;;39.72;24.13;;;-1.50;90.10;;;;;;4995771;28;20046;-84
2022/02/03 12:53:28;;;;;;;41.22;23.60;;;-1.70;90.40;;;;;;4995733;28;20034;-84
2022/02/03 12:55:55;;;;;;;41.92;25.85;;;-1.70;90.50;;;;;;4995267;28;20395;-84
2022/02/03 12:58:24;;;;;;;40.33;24.63;;;-1.80;90.70;;;;;;5011626;28;20109;-84
2022/02/03 13:00:57;;;;;;;38.28;22.17;;;-1.80;90.90;;;;;;5024508;28;20128;-86
2022/02/03 13:03:36;;;;;;;37.15;24.05;;;-1.80;90.80;;;;;;5032416;28;20018;-83
2022/02/03 13:06:10;;;;;;;40.03;25.73;;;-1.80;90.90;;;;;;5032998;28;20049;-84
2022/02/03 13:08:41;;;;;;;36.60;23.10;;;-1.80;90.90;;;;;;5032364;28;20017;-85
2022/02/03 13:11:23;;;;;;;39.47;23.10;;;-1.90;91.00;;;;;;5032234;28;20029;-83
2022/02/03 13:16:49;;;;;;;40.42;24.17;;;-1.80;91.20;;;;;;5014420;28;20041;-85
2022/02/03 13:19:20;;;;;;;44.33;23.98;;;-1.80;91.20;;;;;;5015478;28;20080;-84
2022/02/03 13:22:12;;;;;;;42.78;25.67;;;-1.80;91.20;;;;;;5016560;28;20072;-83
2022/02/03 13:27:20;;;;;;;51.90;30.92;;;-1.70;91.20;;;;;;5016854;28;20030;-85
2022/02/03 13:29:59;;;;;;;53.78;27.35;;;-1.70;91.10;;;;;;4999587;28;20499;-86
2022/02/03 13:32:33;;;;;;;51.78;28.58;;;-1.70;91.00;;;;;;5004091;28;20060;-83
2022/02/03 13:35:06;;;;;;;49.75;28.23;;;-1.70;91.00;;;;;;5006276;28;20040;-82
2022/02/03 13:37:42;;;;;;;50.95;29.42;;;-1.70;91.00;;;;;;5003128;28;20072;-85
2022/02/03 13:40:14;;;;;;;50.10;29.37;;;-1.80;91.10;;;;;;5019166;28;20022;-84
2022/02/03 13:42:46;;;;;;;47.70;30.25;;;-1.70;91.20;;;;;;5000590;28;20399;-83
2022/02/03 13:45:14;;;;;;;59.72;32.47;;;-1.70;91.20;;;;;;5022738;28;20041;-84
2022/02/03 13:47:41;;;;;;;50.28;28.85;;;-1.70;91.10;;;;;;5017532;28;20463;-82
2022/02/03 13:50:12;;;;;;;52.58;31.27;;;-1.80;91.10;;;;;;5016762;28;20098;-84
2022/02/03 14:13:06;;;;;;;50.85;31.25;;;-2.00;91.50;;;;;;5024555;28;20052;-82
2022/02/03 14:15:13;;;;;;;56.00;27.17;;;-2.00;91.50;;;;;;5022187;28;20033;-84
2022/02/03 14:23:09;;;;;;;57.60;32.20;;;-2.00;91.80;;;;;;5017297;28;20125;-83
2022/02/03 14:28:38;;;;;;;53.67;27.33;;;-2.00;91.80;;;;;;4963577;28;20210;-84
2022/02/03 14:31:06;;;;;;;56.45;30.38;;;-2.00;91.90;;;;;;5006920;28;20061;-84
2022/02/03 14:33:39;;;;;;;57.10;32.20;;;-2.00;91.90;;;;;;5016773;28;20348;-83
2022/02/03 14:36:12;;;;;;;52.75;30.30;;;-2.00;91.80;;;;;;5028327;28;20044;-84
2022/02/03 14:41:14;;;;;;;57.47;30.70;;;-2.10;91.90;;;;;;5037516;28;20490;-86
2022/02/03 14:43:41;;;;;;;58.22;32.25;;;-2.10;92.00;;;;;;5035241;28;20033;-84
2022/02/03 14:46:12;;;;;;;61.63;32.67;;;-2.10;92.00;;;;;;5034795;28;20041;-83
2022/02/03 14:48:39;;;;;;;60.42;36.90;;;-2.20;92.00;;;;;;5017140;28;20640;-84
2022/02/03 14:51:09;;;;;;;46.90;29.92;;;-2.20;92.20;;;;;;5032500;28;20017;-85
2022/02/03 14:59:06;;;;;;;59.47;32.33;;;-2.30;92.20;;;;;;5015790;28;20569;-84
2022/02/03 15:01:32;;;;;;;68.05;35.20;;;-2.30;92.40;;;;;;5033569;28;20037;-84
2022/02/03 15:04:06;;;;;;;53.00;33.63;;;-2.30;92.40;;;;;;5034547;28;20079;-85
2022/02/03 15:06:45;;;;;;;50.05;31.67;;;-2.30;92.50;;;;;;5032519;28;20038;-86
2022/02/03 15:09:46;;;;;;;58.35;32.92;;;-2.20;92.60;;;;;;5016511;28;20022;-84
2022/02/03 15:15:09;;;;;;;53.30;30.55;;;-2.30;92.50;;;;;;4953997;29;20027;-84
2022/02/03 15:17:36;;;;;;;57.90;33.15;;;-2.40;92.60;;;;;;4954438;29;20098;-85
2022/02/03 15:20:04;;;;;;;55.30;33.22;;;-2.30;92.80;;;;;;4955333;29;20114;-84
2022/02/03 15:22:30;;;;;;;57.97;31.83;;;-2.30;92.90;;;;;;4960398;28;20038;-85
2022/02/03 15:24:57;;;;;;;60.88;33.00;;;-2.30;92.90;;;;;;4974049;28;20381;-83
2022/02/03 15:27:23;;;;;;;60.60;33.38;;;-2.30;92.90;;;;;;4973652;28;20496;-83
2022/02/03 15:29:51;;;;;;;53.67;29.27;;;-2.20;92.90;;;;;;4972872;28;20109;-84
2022/02/03 15:32:17;;;;;;;50.60;29.02;;;-2.20;92.70;;;;;;4973245;28;20035;-84
2022/02/03 15:34:44;;;;;;;52.72;26.58;;;-2.30;92.70;;;;;;4973913;28;20427;-86
2022/02/03 15:37:15;;;;;;;44.92;27.17;;;-2.30;92.80;;;;;;4973885;28;20181;-84
2022/02/03 15:39:48;;;;;;;53.83;26.67;;;-2.30;92.80;;;;;;4975104;28;20039;-85
2022/02/03 15:42:20;;;;;;;46.47;26.85;;;-2.30;93.00;;;;;;4983424;28;20034;-83
2022/02/03 15:44:50;;;;;;;48.35;28.50;;;-2.30;93.10;;;;;;4986279;28;20100;-84
2022/02/03 15:47:27;;;;;;;51.05;28.45;;;-2.30;93.20;;;;;;4977415;28;20155;-85
2022/02/03 15:50:35;;;;;;;45.83;29.00;;;-2.20;93.30;;;;;;4990006;28;20121;-83
2022/02/03 16:03:42;;;;;;;49.60;28.33;;;-2.30;93.20;;;;;;5017328;28;20029;-84
2022/02/03 16:17:21;;;;;;;56.88;31.95;;;-2.40;93.60;;;;;;5034149;28;20075;-84
2022/02/03 16:22:27;;;;;;;54.78;33.60;;;-2.40;93.30;;;;;;5036814;28;20035;-85
2022/02/03 16:42:03;;;;;;;56.72;32.22;;;-2.50;93.50;;;;;;5013159;28;20041;-84
2022/02/03 16:54:45;;;;;;;65.47;37.00;;;-2.50;94.00;;;;;;5014246;28;20057;-85
2022/02/03 16:57:15;;;;;;;72.05;39.17;;;-2.50;94.00;;;;;;5017758;28;20029;-83
2022/02/03 17:02:24;;;;;;;72.60;38.50;;;-2.70;94.20;;;;;;5036433;28;20037;-83
2022/02/03 17:04:50;;;;;;;;;;;-2.70;94.40;;;;;;5033800;28;20115;-83
2022/02/03 17:07:17;;;;;;;62.17;34.40;;;-2.80;94.50;;;;;;5034351;28;19906;-83
2022/02/03 17:09:42;;;;;;;66.35;37.42;;;-2.70;94.70;;;;;;5027316;28;20029;-85
2022/02/03 17:12:08;;;;;;;72.88;38.70;;;-2.70;94.80;;;;;;5013824;28;20086;-84
2022/02/03 17:14:34;;;;;;;70.93;35.95;;;-2.60;94.90;;;;;;5014009;28;20025;-84
2022/02/03 17:17:00;;;;;;;59.78;36.75;;;-2.60;94.90;;;;;;4995552;28;20030;-87
2022/02/03 17:19:26;;;;;;;69.50;38.63;;;-2.60;94.80;;;;;;4995661;28;20076;-86
2022/02/03 17:21:52;;;;;;;71.60;39.97;;;-2.60;94.80;;;;;;5013276;28;20033;-85
2022/02/03 17:24:18;;;;;;;70.28;40.33;;;-2.60;94.80;;;;;;5013119;28;20396;-84
2022/02/03 17:27:11;;;;;;;69.60;39.70;;;-2.60;94.90;;;;;;5024774;28;20037;-84
2022/02/03 17:29:40;;;;;;;62.88;36.90;;;-2.50;94.90;;;;;;5041742;28;20026;-83
2022/02/03 18:30:05;;;;;;;56.75;32.92;;;-2.60;95.50;;;;;;4954348;29;20078;-84
2022/02/03 18:46:40;;;;;;;56.00;30.88;;;-2.70;95.30;;;;;;5014981;28;20042;-83
2022/02/03 18:52:17;;;;;;;44.70;28.42;;;-2.70;95.50;;;;;;5044062;28;20040;-84
2022/02/03 18:54:28;;;;;;;51.72;29.17;;;-2.70;95.30;;;;;;5022956;28;20529;-83
2022/02/03 18:59:42;;;;;;;47.97;27.65;;;-2.70;95.40;;;;;;5025022;28;20083;-82
2022/02/03 19:57:30;;;;;;;49.83;29.25;;;-2.90;95.50;;;;;;5029998;28;20096;-81
2022/02/03 20:03:22;;;;;;;59.88;30.52;;;-2.90;95.50;;;;;;5028821;28;20031;-82
2022/02/03 20:07:34;;;;;;;63.22;32.15;;;-2.90;95.60;;;;;;5020523;28;20418;-82
2022/02/03 20:12:31;;;;;;;63.03;30.63;;;-2.90;95.70;;;;;;5023595;28;20419;-80
2022/02/03 20:14:58;;;;;;;55.67;31.35;;;-2.90;95.70;;;;;;5020477;28;20022;-83
2022/02/03 20:17:27;;;;;;;57.35;32.50;;;-2.90;95.80;;;;;;5015275;28;20054;-84
2022/02/03 20:19:53;;;;;;;61.05;33.97;;;-2.90;95.80;;;;;;5030927;28;20025;-85
2022/02/03 20:22:19;;;;;;;69.25;35.30;;;-2.80;95.90;;;;;;5028236;28;20033;-85
2022/02/03 20:24:47;;;;;;;56.45;31.33;;;-2.80;95.80;;;;;;5013999;28;20018;-84
2022/02/03 20:27:15;;;;;;;60.08;31.88;;;-2.80;95.80;;;;;;5028141;28;20029;-82
2022/02/03 20:29:40;;;;;;;;;;;-2.80;95.90;;;;;;5013768;28;20025;-84
2022/02/03 20:32:07;;;;;;;66.40;32.00;;;-2.80;95.80;;;;;;5011544;28;19921;-81
2022/02/03 20:34:32;;;;;;;48.55;30.88;;;-2.80;95.80;;;;;;5006087;28;20061;-79
2022/02/03 20:36:58;;;;;;;55.45;35.80;;;-2.90;95.80;;;;;;5015801;28;20076;-82
2022/02/03 20:39:24;;;;;;;62.90;33.22;;;-2.90;95.80;;;;;;5019932;28;20026;-81
2022/02/03 20:41:50;;;;;;;62.45;32.85;;;-2.90;95.90;;;;;;5021556;28;20026;-87
2022/02/03 20:44:16;;;;;;;58.92;29.85;;;-2.90;96.00;;;;;;5022472;28;20022;-82
2022/02/03 20:46:42;;;;;;;63.97;33.63;;;-2.90;96.00;;;;;;5021606;28;20046;-85
2022/02/03 20:49:28;;;;;;;54.67;35.17;;;-2.90;96.00;;;;;;5026605;28;20434;-82
2022/02/03 20:51:56;;;;;;;65.80;32.88;;;-2.90;96.10;;;;;;5018003;28;20041;-85
2022/02/03 20:54:21;;;;;;;62.95;33.67;;;-2.90;96.20;;;;;;5013321;28;20074;-84
2022/02/03 20:56:47;;;;;;;56.67;32.25;;;-2.80;96.10;;;;;;5013301;28;20468;-83
2022/02/03 20:59:14;;;;;;;56.47;32.90;;;-2.80;96.10;;;;;;5013702;28;20479;-84
2022/02/03 21:01:42;;;;;;;56.20;34.13;;;-2.80;96.10;;;;;;5014182;28;20026;-89
2022/02/03 21:04:14;;;;;;;56.38;29.88;;;-2.80;96.00;;;;;;5019678;28;20042;-86
2022/02/03 21:06:40;;;;;;;52.28;30.55;;;-2.90;95.80;;;;;;5013055;28;20502;-84
2022/02/03 21:09:09;;;;;;;67.45;34.40;;;-3.00;95.90;;;;;;5012568;28;20101;-86
2022/02/03 21:11:35;;;;;;;54.35;32.45;;;-3.10;96.00;;;;;;5013342;28;20022;-86
2022/02/03 21:14:02;;;;;;;58.10;30.33;;;-3.20;96.00;;;;;;5013135;28;20029;-85
2022/02/03 21:16:29;;;;;;;52.90;31.50;;;-3.20;96.10;;;;;;5013027;28;20033;-87
2022/02/03 21:18:55;;;;;;;49.10;30.17;;;-3.30;96.10;;;;;;5027891;28;20363;-85
2022/02/03 21:21:20;;;;;;;54.90;29.73;;;-3.30;96.30;;;;;;5032437;28;20097;-85
2022/02/03 21:23:46;;;;;;;56.78;30.05;;;-3.30;96.30;;;;;;5032414;28;20056;-85
2022/02/03 21:26:28;;;;;;;56.13;34.00;;;-3.30;96.40;;;;;;5032134;28;20475;-83
2022/02/03 21:28:54;;;;;;;64.78;34.92;;;-3.20;96.40;;;;;;5032446;28;20099;-85
2022/02/03 21:31:20;;;;;;;52.30;30.60;;;-3.20;96.40;;;;;;5027458;28;20045;-83
2022/02/03 21:33:49;;;;;;;56.60;32.28;;;-3.20;96.40;;;;;;5019276;28;20018;-82
2022/02/03 21:36:16;;;;;;;71.68;33.92;;;-3.20;96.40;;;;;;5012721;28;20026;-84
2022/02/03 21:38:42;;;;;;;60.08;31.77;;;-3.10;96.40;;;;;;5013489;28;20030;-85
2022/02/03 21:41:10;;;;;;;65.10;36.55;;;-3.10;96.40;;;;;;5001103;28;20041;-83
2022/02/03 21:43:36;;;;;;;67.63;39.22;;;-3.10;96.30;;;;;;5018875;28;20017;-83
2022/02/03 21:46:02;;;;;;;53.67;30.92;;;-3.00;96.30;;;;;;5016748;28;20119;-83
2022/02/03 21:48:28;;;;;;;58.15;33.90;;;-3.10;96.00;;;;;;5015852;28;20076;-82
2022/02/03 21:50:58;;;;;;;61.72;32.85;;;-3.10;95.90;;;;;;4997979;28;20152;-82
2022/02/03 21:53:28;;;;;;;65.13;33.88;;;-3.10;96.00;;;;;;5015586;28;20022;-81
2022/02/03 21:55:55;;;;;;;56.45;31.92;;;-3.10;96.10;;;;;;5015677;28;20022;-84
2022/02/03 21:58:27;;;;;;;58.83;32.78;;;-3.10;96.10;;;;;;5015670;28;20022;-82
2022/02/03 22:00:55;;;;;;;57.40;31.10;;;-3.10;96.10;;;;;;5015560;28;20422;-83
2022/02/03 22:03:24;;;;;;;;;;;-3.10;96.10;;;;;;5016341;28;20133;-81
2022/02/03 22:05:51;;;;;;;54.13;32.40;;;-3.10;96.00;;;;;;4997931;28;19921;-84
2022/02/03 22:08:16;;;;;;;56.70;29.75;;;-3.10;96.10;;;;;;4998449;28;20391;-82
2022/02/03 22:10:42;;;;;;;56.35;32.08;;;-3.10;96.00;;;;;;5016888;28;20034;-82
2022/02/03 22:13:08;;;;;;;59.63;29.65;;;-3.00;95.90;;;;;;5028629;28;20018;-82
2022/02/03 22:15:36;;;;;;;55.63;29.15;;;-3.00;95.90;;;;;;5027537;28;20102;-80
2022/02/03 22:18:03;;;;;;;49.08;29.88;;;-3.00;96.00;;;;;;5020647;28;20398;-83
2022/02/03 22:20:40;;;;;;;49.17;28.90;;;-2.90;95.90;;;;;;5023283;28;20025;-82
2022/02/03 22:44:40;;;;;;;61.65;31.42;;;-3.00;95.80;;;;;;5025961;28;20021;-81
2022/02/03 22:47:20;;;;;;;57.47;31.23;;;-3.00;95.80;;;;;;5034745;28;20123;-82
2022/02/03 22:49:46;;;;;;;51.75;28.85;;;-3.00;95.90;;;;;;5035458;28;20049;-83
2022/02/03 22:52:13;;;;;;;46.70;27.88;;;-3.00;95.90;;;;;;5035757;28;20110;-82
2022/02/03 22:54:39;;;;;;;49.30;28.67;;;-3.00;95.90;;;;;;5040688;28;20021;-83
2022/02/03 22:57:05;;;;;;;52.15;27.58;;;-3.00;96.00;;;;;;5040258;28;20084;-80
2022/02/03 23:02:03;;;;;;;50.10;28.83;;;-3.00;96.00;;;;;;5016416;28;20056;-81
2022/02/03 23:04:30;;;;;;;54.85;27.40;;;-3.00;95.90;;;;;;5014760;28;20022;-80
2022/02/03 23:07:05;;;;;;;47.33;28.15;;;-3.00;96.00;;;;;;5014147;28;20034;-82
2022/02/03 23:09:48;;;;;;;50.35;26.48;;;-3.00;96.00;;;;;;5016889;28;20080;-80
2022/02/03 23:12:21;;;;;;;44.25;25.52;;;-3.00;96.00;;;;;;5014657;28;20057;-82
2022/02/03 23:20:07;;;;;;;42.97;26.90;;;-3.00;95.60;;;;;;5013889;28;20030;-84
2022/02/03 23:22:33;;;;;;;47.92;24.92;;;-2.90;95.70;;;;;;5014126;28;20018;-80
2022/02/03 23:25:01;;;;;;;44.90;28.13;;;-3.00;96.00;;;;;;5013729;28;20040;-81
2022/02/03 23:29:58;;;;;;;44.03;25.42;;;-3.00;95.80;;;;;;5013974;28;20030;-81
2022/02/03 23:32:25;;;;;;;48.63;26.35;;;-3.00;95.80;;;;;;4996294;28;20036;-81
2022/02/03 23:35:27;;;;;;;42.38;23.48;;;-3.00;95.80;;;;;;5012283;28;20109;-80
2022/02/03 23:37:48;;;;;;;45.30;25.52;;;-3.10;95.70;;;;;;5010087;28;20037;-81
2022/02/03 23:46:12;;;;;;;37.88;23.50;;;-3.20;95.80;;;;;;5014016;28;20048;-81
